Time;durP1;ratioP1;P1;durP2;ratioP2;P2;SDS_P1;SDS_P2;PMS_P1;PMS_P2;Temp;Humidity;BMP_temperature;BMP_pressure;BME280_temperature;BME280_humidity;BME280_pressure;Samples;Min_cycle;Max_cycle;Signal;HPM_P1;HPM_P2
2024/02/05 00:02:24;;;;;;;27.75;4.25;;;;;;;-146.27;86.26;41905.88;5064955;28;20563;-70
2024/02/05 00:04:50;;;;;;;27.50;4.97;;;;;;;-146.27;86.56;41971.50;5067106;28;20384;-72
2024/02/05 00:07:17;;;;;;;26.70;4.43;;;;;;;-146.27;86.25;41897.94;5069133;28;20033;-70
2024/02/05 00:09:43;;;;;;;27.38;5.30;;;;;;;-146.27;85.21;41911.84;5066535;28;20052;-71
2024/02/05 00:12:08;;;;;;;38.53;6.45;;;;;;;-146.27;86.26;41868.09;5068999;28;20063;-71
2024/02/05 00:14:33;;;;;;;37.22;5.40;;;;;;;-146.27;86.85;41981.44;5065591;28;20043;-70
2024/02/05 00:16:59;;;;;;;24.65;4.40;;;;;;;-146.27;86.10;41880.03;5066096;28;20037;-70
2024/02/05 00:19:24;;;;;;;26.70;4.60;;;;;;;-146.27;85.59;41907.88;5065902;28;20508;-71
2024/02/05 00:21:49;;;;;;;35.60;4.88;;;;;;;-146.27;85.92;41955.59;5066460;28;20441;-70
2024/02/05 00:24:15;;;;;;;33.75;5.28;;;;;;;-146.27;86.87;41979.47;5053311;28;20025;-72
2024/02/05 00:26:40;;;;;;;29.92;4.68;;;;;;;-146.27;86.73;41943.66;5064873;28;20029;-71
2024/02/05 00:29:08;;;;;;;22.80;4.97;;;;;;;-146.27;87.04;41981.44;5058085;28;20452;-71
2024/02/05 00:31:33;;;;;;;22.70;3.97;;;;;;;-146.27;86.21;41903.91;5064349;28;20341;-71
2024/02/05 00:33:59;;;;;;;32.50;6.03;;;;;;;-146.27;87.26;41963.56;5062609;28;20044;-72
2024/02/05 00:36:24;;;;;;;33.85;7.43;;;;;;;-146.27;87.24;41987.41;5066504;28;20016;-72
2024/02/05 00:38:49;;;;;;;29.75;4.93;;;;;;;-146.27;87.18;41991.41;5055035;28;20025;-72
2024/02/05 00:41:15;;;;;;;33.97;5.20;;;;;;;-146.27;85.97;41903.91;5067671;28;20046;-70
2024/02/05 00:43:40;;;;;;;27.48;4.63;;;;;;;-146.27;86.69;42017.25;5066262;28;20492;-71
2024/02/05 00:46:05;;;;;;;27.85;5.60;;;;;;;-146.27;86.86;41991.41;5065849;28;20032;-72
2024/02/05 00:48:31;;;;;;;36.95;5.72;;;;;;;-146.27;85.44;41911.84;5062542;28;20054;-71
2024/02/05 00:50:56;;;;;;;29.00;4.90;;;;;;;-146.27;85.75;41911.84;5067525;28;20060;-72
2024/02/05 00:53:22;;;;;;;33.08;5.63;;;;;;;-146.27;86.30;42019.22;5063626;28;20074;-71
2024/02/05 00:55:47;;;;;;;28.02;5.22;;;;;;;-146.27;85.81;42017.25;5062713;28;20032;-71
2024/02/05 00:58:13;;;;;;;34.72;4.70;;;;;;;-146.27;86.08;41985.44;5067158;28;20074;-72
2024/02/05 01:00:39;;;;;;;38.45;5.20;;;;;;;-146.27;86.58;41973.50;5055467;28;20029;-71
2024/02/05 01:03:05;;;;;;;29.65;4.65;;;;;;;-146.27;85.93;41945.66;5067629;28;20537;-73
2024/02/05 01:05:30;;;;;;;30.88;5.38;;;;;;;-146.27;85.88;41959.56;5056502;28;20029;-73
2024/02/05 01:07:56;;;;;;;31.95;5.00;;;;;;;-146.27;86.64;42035.16;5061469;28;20024;-70
2024/02/05 01:10:21;;;;;;;27.25;6.57;;;;;;;-146.27;85.78;41989.41;5056613;28;20024;-71
2024/02/05 01:12:47;;;;;;;28.05;5.05;;;;;;;-146.27;87.30;42021.22;5061590;28;20048;-71
2024/02/05 01:15:12;;;;;;;27.38;4.90;;;;;;;-146.27;85.72;41973.50;5058928;28;20033;-71
2024/02/05 01:17:37;;;;;;;39.95;6.25;;;;;;;-146.27;88.11;42064.97;5062307;28;20047;-71
2024/02/05 01:20:10;;;;;;;25.40;5.07;;;;;;;-146.27;86.50;41955.59;5052878;28;20028;-71
2024/02/05 01:22:39;;;;;;;33.15;5.07;;;;;;;-146.27;86.64;41967.53;5060821;28;20028;-70
2024/02/05 01:25:08;;;;;;;22.00;4.47;;;;;;;-146.27;85.91;42031.16;5058485;28;20361;-71
2024/02/05 01:27:33;;;;;;;29.30;5.35;;;;;;;-146.27;87.13;42013.28;5056355;28;20108;-71
2024/02/05 01:29:58;;;;;;;37.08;5.03;;;;;;;-146.27;87.10;41963.56;5063184;28;20111;-72
2024/02/05 01:32:24;;;;;;;34.13;5.43;;;;;;;-146.27;86.87;41987.41;5059373;28;20041;-72
2024/02/05 01:34:49;;;;;;;32.95;4.80;;;;;;;-146.27;86.71;41969.53;5060718;28;20082;-72
2024/02/05 01:37:14;;;;;;;30.25;5.63;;;;;;;-146.27;85.77;41905.88;5060174;28;20082;-72
2024/02/05 01:39:40;;;;;;;41.85;5.22;;;;;;;-146.27;85.74;41965.53;5059874;28;20093;-71
2024/02/05 01:42:05;;;;;;;38.17;5.75;;;;;;;-146.27;86.45;42009.28;5066284;28;20043;-72
2024/02/05 01:44:30;;;;;;;30.80;5.15;;;;;;;-146.27;86.44;41947.66;5066636;28;20535;-72
2024/02/05 01:46:56;;;;;;;26.67;5.20;;;;;;;-146.27;85.98;41931.75;5066333;28;20464;-71
2024/02/05 01:49:24;;;;;;;35.25;6.25;;;;;;;-146.27;85.40;42003.31;5066569;28;20059;-72
2024/02/05 01:51:54;;;;;;;24.95;4.93;;;;;;;-146.27;85.43;42027.19;5067169;28;20033;-72
2024/02/05 01:54:21;;;;;;;33.90;6.05;;;;;;;-146.27;86.96;42070.94;5055214;28;20016;-72
2024/02/05 01:56:48;;;;;;;34.08;4.82;;;;;;;-146.27;85.10;41995.38;5058793;28;20032;-72
2024/02/05 01:59:14;;;;;;;32.58;4.90;;;;;;;-146.27;87.98;42051.06;5068037;28;20482;-72
2024/02/05 02:01:41;;;;;;;32.85;4.80;;;;;;;-146.27;87.19;41943.66;5065491;28;20124;-72
2024/02/05 02:04:07;;;;;;;23.50;4.47;;;;;;;-146.27;87.96;42039.13;5064748;28;20031;-72
2024/02/05 02:06:37;;;;;;;25.25;4.88;;;;;;;-146.27;86.55;41947.66;5064126;28;20032;-72
2024/02/05 02:09:03;;;;;;;35.78;5.03;;;;;;;-146.27;86.39;41973.50;5060354;28;20029;-72
2024/02/05 02:11:29;;;;;;;16.17;5.07;;;;;;;-146.27;87.38;42049.06;5065188;28;20044;-72
2024/02/05 02:13:54;;;;;;;41.58;5.90;;;;;;;-146.27;87.79;41991.41;5061409;28;20025;-72
2024/02/05 02:16:26;;;;;;;29.10;4.97;;;;;;;-146.27;86.67;41951.63;5055473;28;20477;-72
2024/02/05 02:18:53;;;;;;;30.30;5.00;;;;;;;-146.27;86.45;41955.59;5066053;28;20039;-72
2024/02/05 02:21:23;;;;;;;28.13;5.03;;;;;;;-146.27;87.59;42037.13;5068454;28;20119;-71
2024/02/05 02:23:49;;;;;;;27.35;5.80;;;;;;;-146.27;87.41;42051.06;5057189;28;20040;-71
2024/02/05 02:26:14;;;;;;;22.02;4.25;;;;;;;-146.27;88.48;42031.16;5063899;28;20480;-72
2024/02/05 02:28:40;;;;;;;29.35;4.38;;;;;;;-146.27;88.08;42043.09;5065805;28;20016;-72
2024/02/05 02:31:06;;;;;;;25.73;5.03;;;;;;;-146.27;88.72;42015.25;5069412;28;20054;-72
2024/02/05 02:33:53;;;;;;;30.45;4.88;;;;;;;-146.27;88.48;42019.22;5068128;28;20047;-72
2024/02/05 02:36:28;;;;;;;24.90;6.43;;;;;;;-146.27;87.27;42064.97;5056991;28;20028;-72
2024/02/05 02:39:06;;;;;;;25.85;4.55;;;;;;;-146.27;87.79;42011.28;5072455;28;20599;-72
2024/02/05 02:41:36;;;;;;;28.00;4.35;;;;;;;-146.27;89.11;42019.22;5070535;28;20392;-71
2024/02/05 02:44:02;;;;;;;35.55;5.57;;;;;;;-146.27;88.74;42007.31;5072363;28;20461;-73
2024/02/05 02:46:28;;;;;;;30.80;5.07;;;;;;;-146.27;87.46;41985.44;5070809;28;20099;-72
2024/02/05 02:48:54;;;;;;;22.70;4.05;;;;;;;-146.27;87.28;42001.34;5070693;28;20507;-73
2024/02/05 02:51:20;;;;;;;28.52;4.47;;;;;;;-146.27;88.55;42027.19;5072801;28;20021;-73
2024/02/05 02:53:45;;;;;;;39.63;5.35;;;;;;;-146.27;87.88;41975.50;5071422;28;20057;-72
2024/02/05 02:56:10;;;;;;;34.55;5.35;;;;;;;-146.27;88.12;42035.16;5058396;28;20105;-71
2024/02/05 02:58:36;;;;;;;28.98;5.68;;;;;;;-146.27;88.06;42059.00;5067077;28;20054;-71
2024/02/05 03:01:01;;;;;;;29.50;5.57;;;;;;;-146.27;88.83;41987.41;5060362;28;20051;-74
2024/02/05 03:03:27;;;;;;;31.98;4.80;;;;;;;-146.27;87.62;42051.06;5070997;28;20024;-71
2024/02/05 03:05:52;;;;;;;31.25;4.72;;;;;;;-146.27;87.64;41969.53;5068092;28;20082;-72
2024/02/05 03:08:18;;;;;;;29.33;5.25;;;;;;;-146.27;87.15;41993.38;5061718;28;20020;-71
2024/02/05 03:10:43;;;;;;;31.60;5.82;;;;;;;-146.27;86.62;42039.13;5069931;28;20389;-71
2024/02/05 03:13:10;;;;;;;29.65;5.50;;;;;;;-146.27;87.00;42102.75;5066000;28;20016;-72
2024/02/05 03:15:36;;;;;;;41.17;7.38;;;;;;;-146.27;87.61;42019.22;5069202;28;20086;-73
2024/02/05 03:18:01;;;;;;;32.58;5.70;;;;;;;-146.27;89.23;42043.09;5068138;28;20194;-72
2024/02/05 03:20:41;;;;;;;30.02;5.38;;;;;;;-146.27;87.75;42049.06;5068149;28;20476;-71
2024/02/05 03:23:08;;;;;;;30.23;6.72;;;;;;;-146.27;87.73;42035.16;5064403;28;20105;-73
2024/02/05 03:25:34;;;;;;;21.73;4.22;;;;;;;-146.27;87.83;42126.63;5063413;28;20099;-71
2024/02/05 03:28:00;;;;;;;40.55;4.57;;;;;;;-146.27;88.45;42084.84;5067844;28;20120;-72
2024/02/05 03:30:30;;;;;;;37.75;5.15;;;;;;;-146.27;88.83;42015.25;5065435;28;20387;-71
2024/02/05 03:32:56;;;;;;;31.30;5.22;;;;;;;-146.27;87.41;42001.34;5066863;28;20036;-72
2024/02/05 03:35:23;;;;;;;31.80;4.75;;;;;;;-146.27;87.92;42080.88;5070198;28;20053;-72
2024/02/05 03:37:48;;;;;;;22.45;5.18;;;;;;;-146.27;87.72;42100.75;5069437;28;20024;-72
2024/02/05 03:40:14;;;;;;;28.05;4.68;;;;;;;-146.27;88.51;42031.16;5069395;28;20036;-72
2024/02/05 03:42:39;;;;;;;34.63;6.38;;;;;;;-146.27;88.62;42031.16;5056869;28;20041;-72
2024/02/05 03:45:05;;;;;;;26.08;5.40;;;;;;;-146.27;88.51;42031.16;5065976;28;20037;-73
2024/02/05 03:47:30;;;;;;;32.28;6.38;;;;;;;-146.27;89.22;42025.19;5064631;28;20035;-73
2024/02/05 03:49:56;;;;;;;38.35;5.40;;;;;;;-146.27;88.91;42053.03;5069434;28;20085;-73
2024/02/05 03:52:21;;;;;;;28.67;4.60;;;;;;;-146.27;87.49;42007.31;5059084;28;20115;-72
2024/02/05 03:54:47;;;;;;;29.13;6.40;;;;;;;-146.27;87.83;41999.34;5066843;28;20599;-73
2024/02/05 03:57:13;;;;;;;26.65;7.18;;;;;;;-146.27;88.72;42007.31;5055208;28;20039;-72
2024/02/05 03:59:39;;;;;;;26.48;4.95;;;;;;;-146.27;88.90;42015.25;5065632;28;20035;-71
2024/02/05 04:02:04;;;;;;;27.75;4.35;;;;;;;-146.27;88.94;42104.75;5067800;28;20399;-72
2024/02/05 04:04:30;;;;;;;42.15;5.68;;;;;;;-146.27;89.18;41993.38;5068235;28;20063;-71
2024/02/05 04:06:56;;;;;;;31.50;5.80;;;;;;;-146.27;89.01;41993.38;5067771;28;20622;-72
2024/02/05 04:09:21;;;;;;;26.45;4.97;;;;;;;-146.27;87.66;42062.97;5067334;28;20032;-72
2024/02/05 04:11:47;;;;;;;32.72;5.28;;;;;;;-146.27;88.76;42039.13;5068303;28;20028;-72
2024/02/05 04:14:12;;;;;;;40.67;5.60;;;;;;;-146.27;88.89;42027.19;5067406;28;20035;-71
2024/02/05 04:16:37;;;;;;;37.80;7.20;;;;;;;-146.27;88.05;42019.22;5069552;28;20543;-71
2024/02/05 04:19:03;;;;;;;33.00;6.00;;;;;;;-146.27;88.52;42051.06;5064254;28;20033;-71
2024/02/05 04:21:28;;;;;;;36.45;5.60;;;;;;;-146.27;88.71;41997.34;5067481;28;20024;-72
2024/02/05 04:23:54;;;;;;;30.63;5.47;;;;;;;-146.27;89.36;41987.41;5067969;28;20460;-73
2024/02/05 04:26:19;;;;;;;31.67;6.38;;;;;;;-146.27;88.80;41991.41;5058053;28;20355;-73
2024/02/05 04:28:45;;;;;;;29.60;6.43;;;;;;;-146.27;88.12;41943.66;5065580;28;20103;-71
2024/02/05 04:31:11;;;;;;;46.25;5.78;;;;;;;-146.27;88.19;41993.38;5055325;28;20052;-74
2024/02/05 04:33:36;;;;;;;43.95;6.05;;;;;;;-146.27;88.19;41987.41;5059839;28;20272;-73
2024/02/05 04:36:01;;;;;;;28.75;4.55;;;;;;;-146.27;88.97;42025.19;5058864;28;20040;-73
2024/02/05 04:38:27;;;;;;;32.90;6.65;;;;;;;-146.27;89.19;41999.34;5059531;28;20480;-72
2024/02/05 04:40:52;;;;;;;45.40;6.20;;;;;;;-146.27;87.93;42011.28;5065013;28;20100;-72
2024/02/05 04:43:18;;;;;;;34.47;5.57;;;;;;;-146.27;88.64;41991.41;5063879;28;20719;-71
2024/02/05 04:45:43;;;;;;;39.70;5.50;;;;;;;-146.27;88.06;41991.41;5064249;28;20039;-72
2024/02/05 04:48:09;;;;;;;46.22;6.97;;;;;;;-146.27;88.62;42025.19;5068275;28;20577;-71
2024/02/05 04:50:34;;;;;;;24.23;4.70;;;;;;;-146.27;87.75;42013.28;5060745;28;20625;-72
2024/02/05 04:52:59;;;;;;;23.77;4.60;;;;;;;-146.27;88.71;42072.94;5066568;28;20021;-72
2024/02/05 04:55:25;;;;;;;39.95;5.60;;;;;;;-146.27;87.38;42027.19;5055169;28;20078;-72
2024/02/05 04:57:50;;;;;;;31.85;6.88;;;;;;;-146.27;88.05;42106.72;5065659;28;20028;-71
2024/02/05 05:00:17;;;;;;;34.42;5.82;;;;;;;-146.27;89.02;42126.63;5064157;28;20021;-72
2024/02/05 05:02:42;;;;;;;38.80;5.85;;;;;;;-146.27;87.13;42043.09;5065900;28;20027;-72
2024/02/05 05:05:08;;;;;;;31.48;5.95;;;;;;;-146.27;87.86;42084.84;5066653;28;20029;-72
2024/02/05 05:07:33;;;;;;;40.30;7.97;;;;;;;-146.27;88.89;42080.88;5068663;28;20111;-72
2024/02/05 05:10:00;;;;;;;38.67;7.28;;;;;;;-146.27;86.92;42128.59;5066217;28;20480;-71
2024/02/05 05:12:27;;;;;;;28.27;4.78;;;;;;;-146.27;87.35;42090.81;5067789;28;20244;-72
2024/02/05 05:14:52;;;;;;;36.83;5.72;;;;;;;-146.27;87.52;42086.84;5062633;28;20270;-72
2024/02/05 05:17:17;;;;;;;29.63;6.90;;;;;;;-146.27;88.83;42136.56;5067068;28;20032;-72
2024/02/05 05:19:43;;;;;;;35.95;6.68;;;;;;;-146.27;87.94;42094.81;5066447;28;20028;-73
2024/02/05 05:22:08;;;;;;;24.98;6.07;;;;;;;-146.27;88.62;42132.59;5068912;28;20382;-72
2024/02/05 05:24:33;;;;;;;37.88;5.47;;;;;;;-146.27;88.24;42164.41;5066420;28;20477;-71
2024/02/05 05:26:59;;;;;;;28.50;5.57;;;;;;;-146.27;89.05;42138.53;5065393;28;20511;-73
2024/02/05 05:29:24;;;;;;;40.33;6.47;;;;;;;-146.27;88.94;42090.81;5063937;28;20400;-71
2024/02/05 05:31:49;;;;;;;28.73;6.07;;;;;;;-146.27;87.21;42070.94;5066500;28;20032;-73
2024/02/05 05:34:15;;;;;;;45.75;7.93;;;;;;;-146.27;87.57;42158.44;5066296;28;20531;-73
2024/02/05 05:36:40;;;;;;;31.83;5.38;;;;;;;-146.27;86.99;42148.50;5065795;28;20025;-71
2024/02/05 05:39:06;;;;;;;30.92;7.32;;;;;;;-146.27;88.32;42102.75;5064291;28;20031;-72
2024/02/05 05:41:31;;;;;;;35.70;5.97;;;;;;;-146.27;89.24;42100.75;5061628;28;20055;-71
2024/02/05 05:43:56;;;;;;;36.15;5.75;;;;;;;-146.27;87.74;42070.94;5059752;28;20074;-72
2024/02/05 05:46:22;;;;;;;30.60;5.72;;;;;;;-146.27;88.04;42210.13;5066662;28;20036;-71
2024/02/05 05:48:47;;;;;;;30.08;4.70;;;;;;;-146.27;88.13;42080.88;5064777;28;20043;-71
2024/02/05 05:51:14;;;;;;;31.13;4.85;;;;;;;-146.27;86.89;42170.38;5067332;28;20035;-72
2024/02/05 05:53:40;;;;;;;35.08;5.38;;;;;;;-146.27;88.56;42166.38;5067598;28;20056;-72
2024/02/05 05:56:06;;;;;;;38.45;6.63;;;;;;;-146.27;88.16;42162.41;5066213;28;20034;-72
2024/02/05 05:58:32;;;;;;;32.58;5.07;;;;;;;-146.27;87.16;42140.53;5068294;28;20024;-72
2024/02/05 06:00:57;;;;;;;34.80;5.22;;;;;;;-146.27;87.85;42222.06;5063108;28;20025;-71
2024/02/05 06:03:22;;;;;;;24.52;5.05;;;;;;;-146.27;87.39;42138.53;5058106;28;20127;-72
2024/02/05 06:05:48;;;;;;;25.58;5.60;;;;;;;-146.27;87.40;42222.06;5062130;28;20124;-71
2024/02/05 06:08:14;;;;;;;36.22;5.15;;;;;;;-146.27;87.65;42172.34;5066083;28;20032;-71
2024/02/05 06:10:40;;;;;;;21.85;5.20;;;;;;;-146.27;87.28;42275.75;5066272;28;20046;-72
2024/02/05 06:13:05;;;;;;;33.97;5.80;;;;;;;-146.27;87.73;42214.13;5068061;28;20131;-71
2024/02/05 06:15:32;;;;;;;33.70;6.30;;;;;;;-146.27;86.60;42172.34;5069952;28;20365;-71
2024/02/05 06:17:58;;;;;;;35.85;6.25;;;;;;;-146.27;86.69;42186.28;5068089;28;20028;-72
2024/02/05 06:20:23;;;;;;;25.75;5.22;;;;;;;-146.27;87.84;42291.66;5071252;28;20095;-72
2024/02/05 06:22:48;;;;;;;31.10;5.07;;;;;;;-146.27;88.38;42230.03;5072375;28;20051;-72
2024/02/05 06:25:14;;;;;;;25.98;4.68;;;;;;;-146.27;89.47;42245.94;5070769;28;20053;-72
2024/02/05 06:27:39;;;;;;;35.33;6.00;;;;;;;-146.27;89.45;42202.19;5068315;28;20343;-72
2024/02/05 06:30:06;;;;;;;29.55;5.63;;;;;;;-146.27;88.53;42168.38;5071463;28;20028;-72
2024/02/05 06:32:31;;;;;;;37.38;7.72;;;;;;;-146.27;89.63;42122.63;5070414;28;20056;-71
2024/02/05 06:34:56;;;;;;;27.00;5.63;;;;;;;-146.27;89.67;42148.50;5062755;28;20500;-72
2024/02/05 06:37:22;;;;;;;29.30;4.85;;;;;;;-146.27;88.60;42130.59;5056410;28;20070;-72
2024/02/05 06:39:47;;;;;;;46.50;6.20;;;;;;;-146.27;87.48;42198.19;5071182;28;20531;-73
2024/02/05 06:42:12;;;;;;;38.60;6.35;;;;;;;-146.27;87.70;42166.38;5062746;28;20033;-72
2024/02/05 06:44:38;;;;;;;38.15;5.47;;;;;;;-146.27;88.64;42182.28;5062919;28;20070;-73
2024/02/05 06:47:04;;;;;;;45.10;6.68;;;;;;;-146.27;88.17;42198.19;5070363;28;20028;-72
2024/02/05 06:49:29;;;;;;;29.42;5.72;;;;;;;-146.27;88.80;42118.66;5070138;28;20028;-72
2024/02/05 06:51:54;;;;;;;34.20;5.72;;;;;;;-146.27;89.00;42090.81;5071451;28;20032;-72
2024/02/05 06:54:20;;;;;;;31.83;6.22;;;;;;;-146.27;88.84;42110.72;5069256;28;20026;-71
2024/02/05 06:56:46;;;;;;;33.05;6.18;;;;;;;-146.27;87.59;42170.38;5071289;28;20051;-71
2024/02/05 06:59:12;;;;;;;37.20;6.43;;;;;;;-146.27;88.62;42186.28;5071931;28;20082;-74
2024/02/05 07:01:37;;;;;;;39.25;6.82;;;;;;;-146.27;89.34;42134.56;5071439;28;20328;-73
2024/02/05 07:04:03;;;;;;;35.00;5.90;;;;;;;-146.27;89.67;42106.72;5064910;28;20027;-71
2024/02/05 07:06:28;;;;;;;41.75;6.78;;;;;;;-146.27;89.68;42106.72;5068998;28;20035;-74
2024/02/05 07:08:53;;;;;;;43.85;7.25;;;;;;;-146.27;89.62;42116.66;5066068;28;20119;-74
2024/02/05 07:11:19;;;;;;;30.60;7.43;;;;;;;-146.27;90.89;42070.94;5068108;28;20103;-72
2024/02/05 07:13:44;;;;;;;31.35;5.97;;;;;;;-146.27;90.11;42154.47;5069446;28;20443;-74
2024/02/05 07:16:17;;;;;;;43.15;6.82;;;;;;;-146.27;89.13;42059.00;5070780;28;20555;-73
2024/02/05 07:18:43;;;;;;;32.85;6.45;;;;;;;-146.27;88.72;42108.72;5063662;28;20361;-73
2024/02/05 07:21:09;;;;;;;34.92;5.78;;;;;;;-146.27;89.16;42146.50;5064935;28;20101;-72
2024/02/05 07:23:35;;;;;;;35.90;6.75;;;;;;;-146.27;88.83;42110.72;5070634;28;20036;-72
2024/02/05 07:26:01;;;;;;;28.83;5.97;;;;;;;-146.27;88.98;42230.03;5068728;28;20036;-70
2024/02/05 07:28:26;;;;;;;38.95;6.05;;;;;;;-146.27;89.16;42206.16;5070449;28;20036;-71
2024/02/05 07:30:53;;;;;;;37.50;6.25;;;;;;;-146.27;88.26;42232.00;5076244;28;20028;-72
2024/02/05 07:33:19;;;;;;;36.08;5.82;;;;;;;-146.27;88.56;42222.06;5077239;28;20056;-73
2024/02/05 07:35:44;;;;;;;41.05;6.90;;;;;;;-146.27;87.60;42291.66;5068421;28;20082;-73
2024/02/05 07:38:09;;;;;;;23.30;5.57;;;;;;;-146.27;89.41;42295.66;5065672;28;20635;-72
2024/02/05 07:40:35;;;;;;;30.67;6.72;;;;;;;-146.27;90.00;42291.66;5065641;28;20100;-71
2024/02/05 07:43:00;;;;;;;38.50;6.95;;;;;;;-146.27;88.40;42277.75;5071235;28;20056;-72
2024/02/05 07:45:26;;;;;;;40.40;7.78;;;;;;;-146.27;89.53;42281.72;5051507;28;20060;-72
2024/02/05 07:47:51;;;;;;;37.60;6.72;;;;;;;-146.27;89.04;42321.50;5052540;28;20025;-72
2024/02/05 07:50:16;;;;;;;38.60;7.55;;;;;;;-146.27;89.02;42325.47;5053435;28;20115;-72
2024/02/05 07:52:42;;;;;;;27.95;6.80;;;;;;;-146.27;89.57;42329.47;5069651;28;20016;-70
2024/02/05 07:55:08;;;;;;;36.90;5.93;;;;;;;-146.27;88.61;42337.41;5054820;28;20020;-71
2024/02/05 07:57:34;;;;;;;39.75;6.32;;;;;;;-146.27;89.00;42371.22;5055584;28;20056;-71
2024/02/05 07:59:59;;;;;;;24.40;5.55;;;;;;;-146.27;89.80;42416.97;5056106;28;20056;-70
2024/02/05 08:02:25;;;;;;;34.00;6.38;;;;;;;-146.27;90.35;42363.25;5060784;28;20442;-71
2024/02/05 08:04:51;;;;;;;27.98;7.05;;;;;;;-146.27;90.65;42361.28;5062762;28;20074;-71
2024/02/05 08:07:17;;;;;;;30.17;6.90;;;;;;;-146.27;90.10;42401.06;5070277;28;20388;-71
2024/02/05 08:09:42;;;;;;;44.55;7.28;;;;;;;-146.27;90.42;42375.19;5058939;28;20385;-72
2024/02/05 08:12:08;;;;;;;29.60;6.28;;;;;;;-146.27;89.40;42432.88;5068136;28;20032;-72
2024/02/05 08:14:33;;;;;;;36.15;6.60;;;;;;;-146.27;88.94;42468.66;5068809;28;20078;-70
2024/02/05 08:16:58;;;;;;;32.67;7.13;;;;;;;-146.27;88.17;42528.31;5070386;28;20036;-71
2024/02/05 08:19:24;;;;;;;35.38;6.18;;;;;;;-146.27;88.13;42562.13;5072133;28;20627;-70
2024/02/05 08:21:49;;;;;;;33.67;6.32;;;;;;;-146.27;88.19;42613.84;5069426;28;20407;-72
2024/02/05 08:24:15;;;;;;;35.72;6.60;;;;;;;-146.27;89.42;42591.97;5066924;28;20148;-71
2024/02/05 08:26:40;;;;;;;29.70;5.90;;;;;;;-146.27;88.05;42643.69;5067972;28;20082;-72
2024/02/05 08:29:05;;;;;;;34.55;6.40;;;;;;;-146.27;89.18;42528.31;5067837;28;20070;-73
2024/02/05 08:31:31;;;;;;;25.60;6.60;;;;;;;-146.27;89.48;42679.47;5070448;28;20105;-71
2024/02/05 08:33:57;;;;;;;37.40;7.68;;;;;;;-146.27;88.97;42627.78;5070626;28;20037;-71
2024/02/05 08:36:22;;;;;;;47.65;6.90;;;;;;;-146.27;88.32;42603.91;5068639;28;20028;-70
2024/02/05 08:38:47;;;;;;;31.58;6.38;;;;;;;-146.27;88.46;42695.38;5066591;28;20111;-70
2024/02/05 08:41:13;;;;;;;36.40;6.60;;;;;;;-146.27;88.09;42743.13;5061082;28;20028;-71
2024/02/05 08:43:38;;;;;;;34.63;6.25;;;;;;;-146.27;88.20;42767.00;5067859;28;20071;-72
2024/02/05 08:46:04;;;;;;;29.98;5.55;;;;;;;-146.27;89.59;42798.81;5067545;28;20480;-71
2024/02/05 08:48:31;;;;;;;23.60;5.40;;;;;;;-146.27;88.21;42770.97;5057023;28;20036;-70
2024/02/05 08:50:57;;;;;;;36.35;8.32;;;;;;;-146.27;88.01;42780.91;5061643;28;20024;-72
2024/02/05 08:53:22;;;;;;;37.00;6.68;;;;;;;-146.27;87.81;42755.06;5068646;28;20033;-73
2024/02/05 08:55:47;;;;;;;23.40;5.85;;;;;;;-146.27;87.56;42926.09;5051527;28;20033;-72
2024/02/05 08:58:13;;;;;;;26.40;5.32;;;;;;;-146.27;86.91;42798.81;5050532;28;20037;-71
2024/02/05 09:00:39;;;;;;;28.25;5.47;;;;;;;-146.27;86.55;42934.06;5064666;28;20047;-73
2024/02/05 09:03:04;;;;;;;33.78;6.88;;;;;;;-146.27;88.16;42806.75;5070123;28;20059;-72
2024/02/05 09:05:30;;;;;;;28.13;5.50;;;;;;;-146.27;87.23;42854.50;5053177;28;20464;-71
2024/02/05 09:07:55;;;;;;;37.58;6.47;;;;;;;-146.27;87.37;42792.84;5069661;28;20032;-71
2024/02/05 09:10:22;;;;;;;29.90;6.30;;;;;;;-146.27;86.70;42886.31;5068610;28;20020;-70
2024/02/05 09:12:48;;;;;;;27.13;6.82;;;;;;;-146.27;87.89;42864.44;5089205;28;20060;-72
2024/02/05 09:15:14;;;;;;;33.33;6.05;;;;;;;-146.27;87.36;42842.56;5062697;28;20037;-71
2024/02/05 09:17:39;;;;;;;30.83;5.22;;;;;;;-146.27;87.42;42938.03;5050255;28;20386;-70
2024/02/05 09:20:05;;;;;;;21.10;5.60;;;;;;;-146.27;86.97;42975.81;5056595;28;20029;-70
2024/02/05 09:22:30;;;;;;;31.48;5.32;;;;;;;-146.27;86.55;42979.81;5069477;28;20024;-71
2024/02/05 09:24:56;;;;;;;29.77;5.25;;;;;;;-146.27;87.29;42977.81;5070050;28;20024;-70
2024/02/05 09:27:21;;;;;;;26.27;5.28;;;;;;;-146.27;87.48;42963.91;5065890;28;20061;-71
2024/02/05 09:29:46;;;;;;;33.35;5.43;;;;;;;-146.27;87.56;42957.94;5050182;28;20016;-72
2024/02/05 09:32:12;;;;;;;41.58;6.10;;;;;;;-146.27;86.56;42918.16;5067192;28;20054;-70
2024/02/05 09:34:37;;;;;;;32.15;5.45;;;;;;;-146.27;87.02;42940.03;5050117;28;20489;-71
2024/02/05 09:37:04;;;;;;;31.55;5.88;;;;;;;-146.27;87.50;42989.75;5049954;28;20029;-71
2024/02/05 09:39:30;;;;;;;36.83;5.95;;;;;;;-146.27;87.76;42961.91;5049949;28;20052;-71
2024/02/05 09:42:00;;;;;;;29.80;5.35;;;;;;;-146.27;87.09;42965.88;5063790;28;20056;-71
2024/02/05 09:44:27;;;;;;;37.85;6.55;;;;;;;-146.27;87.10;42942.00;5052594;28;20017;-71
2024/02/05 09:46:55;;;;;;;33.28;4.53;;;;;;;-146.27;87.51;43029.53;5053547;28;20032;-72
2024/02/05 09:49:21;;;;;;;30.13;4.72;;;;;;;-146.27;86.97;43045.44;5054955;28;20060;-72
2024/02/05 09:51:50;;;;;;;31.60;6.32;;;;;;;-146.27;86.23;43009.63;5086520;28;20070;-70
2024/02/05 09:54:16;;;;;;;23.67;4.28;;;;;;;-146.27;88.05;43051.41;5059699;28;20017;-72
2024/02/05 09:56:41;;;;;;;30.35;5.78;;;;;;;-146.27;88.05;42997.72;5054019;28;20119;-70
2024/02/05 09:59:07;;;;;;;35.38;6.28;;;;;;;-146.27;87.03;42989.75;5053946;28;20433;-74
2024/02/05 10:01:34;;;;;;;39.78;6.15;;;;;;;-146.27;88.37;42971.84;5064565;28;20039;-70
2024/02/05 10:04:01;;;;;;;35.45;6.75;;;;;;;-146.27;86.80;42949.97;5073610;28;20027;-70
2024/02/05 10:06:33;;;;;;;27.55;7.03;;;;;;;-146.27;89.67;43033.50;5083123;28;20032;-71
2024/02/05 10:09:06;;;;;;;40.38;5.90;;;;;;;-146.27;88.08;42940.03;5077328;28;20108;-70
2024/02/05 10:11:34;;;;;;;24.55;5.30;;;;;;;-146.27;87.51;43057.38;5073661;28;20020;-72
2024/02/05 10:13:59;;;;;;;42.90;6.47;;;;;;;-146.27;87.94;43053.41;5059781;28;20029;-70
2024/02/05 10:16:25;;;;;;;31.92;6.30;;;;;;;-146.27;86.97;43069.31;5066496;28;20028;-70
2024/02/05 10:18:50;;;;;;;34.25;5.07;;;;;;;-146.27;87.43;43111.09;5061335;28;20088;-70
2024/02/05 10:21:17;;;;;;;37.72;5.18;;;;;;;-146.27;86.08;43009.63;5061811;28;20476;-69
2024/02/05 10:23:53;;;;;;;22.00;5.28;;;;;;;-146.27;87.46;43168.75;5067045;28;20025;-71
2024/02/05 10:26:19;;;;;;;32.13;5.60;;;;;;;-146.27;86.84;43121.03;5071822;28;20082;-73
2024/02/05 10:28:44;;;;;;;38.58;6.70;;;;;;;-146.27;85.54;43065.34;5062468;28;20493;-71
2024/02/05 10:31:14;;;;;;;38.25;6.00;;;;;;;-146.27;86.32;43061.34;5053223;28;20098;-70
2024/02/05 10:33:40;;;;;;;37.42;6.20;;;;;;;-146.27;85.46;43107.09;5052897;28;20044;-70
2024/02/05 10:36:06;;;;;;;25.55;4.93;;;;;;;-146.27;87.09;43200.59;5063272;28;20032;-71
2024/02/05 10:38:35;;;;;;;41.65;5.15;;;;;;;-146.27;87.13;43119.03;5065057;28;20787;-70
2024/02/05 10:41:01;;;;;;;37.30;5.45;;;;;;;-146.27;86.90;43144.91;5073082;28;20017;-70
2024/02/05 10:43:29;;;;;;;28.98;5.43;;;;;;;-146.27;86.21;43045.44;5073046;28;20031;-71
2024/02/05 10:45:58;;;;;;;45.88;6.60;;;;;;;-146.27;85.30;43053.41;5072047;28;20028;-70
2024/02/05 10:48:24;;;;;;;34.00;5.45;;;;;;;-146.27;86.40;43164.78;5066330;28;20060;-70
2024/02/05 10:50:50;;;;;;;41.85;7.32;;;;;;;-146.27;84.58;43144.91;5058220;28;20056;-69
2024/02/05 10:53:15;;;;;;;40.60;4.80;;;;;;;-146.27;84.68;43276.19;5067654;28;20074;-71
2024/02/05 10:55:45;;;;;;;42.63;5.68;;;;;;;-146.27;84.13;43164.78;5058077;28;20016;-69
2024/02/05 10:58:13;;;;;;;36.75;6.30;;;;;;;-146.27;83.94;43134.94;5067021;28;20175;-70
2024/02/05 11:00:39;;;;;;;39.00;6.10;;;;;;;-146.27;83.83;43268.22;5052729;28;20362;-70
2024/02/05 11:03:07;;;;;;;34.17;5.13;;;;;;;-146.27;84.60;43244.34;5051223;28;20033;-69
2024/02/05 11:05:34;;;;;;;43.67;6.38;;;;;;;-146.27;84.15;43196.63;5054960;28;20473;-71